Time;durP1;ratioP1;P1;durP2;ratioP2;P2;SDS_P1;SDS_P2;PMS_P1;PMS_P2;Temp;Humidity;BMP_temperature;BMP_pressure;BME280_temperature;BME280_humidity;BME280_pressure;Samples;Min_cycle;Max_cycle;Signal;HPM_P1;HPM_P2
2023/03/08 00:00:49;;;;;;;16.60;9.85;;;3.30;99.90;;;;;;4874009;29;20341;-73
2023/03/08 00:03:14;;;;;;;15.65;10.30;;;3.40;99.90;;;;;;4876947;29;20052;-73
2023/03/08 00:05:40;;;;;;;14.75;8.93;;;3.40;99.90;;;;;;4884458;29;20032;-74
2023/03/08 00:08:06;;;;;;;16.77;9.52;;;3.40;99.90;;;;;;4887328;29;20119;-73
2023/03/08 00:10:32;;;;;;;14.00;9.10;;;3.50;99.90;;;;;;4886282;29;20111;-74
2023/03/08 00:12:57;;;;;;;15.32;9.48;;;3.60;99.90;;;;;;4885223;29;20519;-74
2023/03/08 00:15:23;;;;;;;15.68;9.73;;;3.60;99.90;;;;;;4900807;29;20820;-73
2023/03/08 00:17:49;;;;;;;15.20;9.50;;;3.60;99.90;;;;;;4882077;29;20029;-73
2023/03/08 00:20:14;;;;;;;18.30;10.02;;;3.60;99.90;;;;;;4869199;29;20069;-73
2023/03/08 00:22:41;;;;;;;16.73;9.43;;;3.60;99.90;;;;;;4885437;29;20045;-74
2023/03/08 00:25:08;;;;;;;17.65;9.48;;;3.60;99.90;;;;;;4885619;29;20401;-73
2023/03/08 00:27:35;;;;;;;16.00;10.27;;;3.60;99.90;;;;;;4894795;23;20091;-80
2023/03/08 00:30:02;;;;;;;16.17;10.10;;;3.70;99.90;;;;;;4877202;29;20139;-79
2023/03/08 00:32:27;;;;;;;17.15;9.43;;;3.70;99.90;;;;;;4882660;29;20032;-79
2023/03/08 00:34:53;;;;;;;17.55;9.27;;;3.60;99.90;;;;;;4878937;29;20201;-80
2023/03/08 00:37:19;;;;;;;17.33;10.30;;;3.70;99.90;;;;;;4874382;29;20456;-81
2023/03/08 00:39:51;;;;;;;18.55;10.00;;;3.60;99.90;;;;;;4881294;29;20124;-81
2023/03/08 00:42:17;;;;;;;17.70;9.93;;;3.70;99.90;;;;;;4881012;29;20127;-80
2023/03/08 00:44:42;;;;;;;16.75;10.30;;;3.70;99.90;;;;;;4882534;29;20054;-81
2023/03/08 00:47:08;;;;;;;16.70;10.15;;;3.60;99.90;;;;;;4881136;29;20033;-81
2023/03/08 00:49:34;;;;;;;17.55;10.32;;;3.60;99.90;;;;;;4881114;29;20091;-81
2023/03/08 00:51:59;;;;;;;19.15;10.20;;;3.60;99.90;;;;;;4880588;29;20425;-81
2023/03/08 00:54:25;;;;;;;17.98;10.00;;;3.60;99.90;;;;;;4881398;29;20041;-81
2023/03/08 00:56:50;;;;;;;17.67;10.65;;;3.60;99.90;;;;;;4881106;29;20613;-81
2023/03/08 00:59:16;;;;;;;17.15;10.43;;;3.60;99.90;;;;;;4874752;29;20037;-81
2023/03/08 01:01:42;;;;;;;24.50;11.30;;;3.60;99.90;;;;;;4870846;29;20510;-81
2023/03/08 01:04:07;;;;;;;18.75;11.02;;;3.70;99.90;;;;;;4877766;29;20037;-81
2023/03/08 01:06:33;;;;;;;17.92;11.05;;;3.70;99.90;;;;;;4873855;29;20119;-79
2023/03/08 01:08:59;;;;;;;21.40;10.88;;;3.70;99.90;;;;;;4880469;29;20040;-79
2023/03/08 01:11:26;;;;;;;20.15;11.45;;;3.60;99.90;;;;;;4875774;29;20111;-78
2023/03/08 01:13:52;;;;;;;17.67;10.95;;;3.70;99.90;;;;;;4880594;29;20273;-79
2023/03/08 01:16:26;;;;;;;21.48;11.57;;;3.70;99.90;;;;;;4872373;29;20029;-79
2023/03/08 01:18:53;;;;;;;20.77;11.40;;;3.70;99.90;;;;;;4880563;29;20535;-79
2023/03/08 01:21:19;;;;;;;21.08;12.10;;;3.70;99.90;;;;;;4879740;29;20220;-79
2023/03/08 01:23:45;;;;;;;22.80;12.52;;;3.70;99.90;;;;;;4880683;29;20519;-79
2023/03/08 01:26:14;;;;;;;23.23;12.23;;;3.70;99.90;;;;;;4875765;29;20745;-80
2023/03/08 01:28:39;;;;;;;22.00;12.10;;;3.70;99.90;;;;;;4880309;29;20036;-79
2023/03/08 01:31:08;;;;;;;23.33;11.73;;;3.70;99.90;;;;;;4881366;29;20077;-78
2023/03/08 01:33:34;;;;;;;20.45;12.30;;;3.80;99.90;;;;;;4868697;29;20489;-79
2023/03/08 01:36:03;;;;;;;24.88;13.00;;;3.70;99.90;;;;;;4878994;29;20041;-79
2023/03/08 01:38:29;;;;;;;26.55;12.95;;;3.70;99.90;;;;;;4891809;29;20037;-79
2023/03/08 01:40:59;;;;;;;20.08;11.70;;;3.70;99.90;;;;;;4881642;29;20037;-79
2023/03/08 01:43:30;;;;;;;21.30;12.13;;;3.50;99.90;;;;;;4873893;29;20041;-79
2023/03/08 01:46:05;;;;;;;;;;;3.50;99.90;;;;;;4861874;29;20036;-79
2023/03/08 01:48:36;;;;;;;24.02;12.38;;;3.50;99.90;;;;;;4878070;29;20398;-79
2023/03/08 01:51:05;;;;;;;28.15;14.05;;;3.40;99.90;;;;;;4880712;29;20033;-80
2023/03/08 01:53:33;;;;;;;23.77;13.25;;;3.40;99.90;;;;;;4881572;29;20041;-79
2023/03/08 01:55:58;;;;;;;26.05;13.45;;;3.30;99.90;;;;;;4881939;29;20127;-79
2023/03/08 01:58:25;;;;;;;23.85;13.30;;;3.40;99.90;;;;;;4881543;29;20058;-79
2023/03/08 02:00:51;;;;;;;24.58;13.85;;;3.40;99.90;;;;;;4878821;29;20028;-78
2023/03/08 02:03:16;;;;;;;23.83;13.07;;;3.40;99.90;;;;;;4881479;29;20404;-78
2023/03/08 02:05:43;;;;;;;25.25;12.45;;;3.30;99.90;;;;;;4863909;29;20176;-78
2023/03/08 02:08:08;;;;;;;27.73;12.15;;;3.30;99.90;;;;;;4885592;29;20503;-78
2023/03/08 02:10:36;;;;;;;25.77;13.30;;;3.30;99.90;;;;;;4877284;29;20024;-78
2023/03/08 02:13:07;;;;;;;25.25;13.13;;;3.30;99.90;;;;;;4882588;29;20033;-78
2023/03/08 02:15:33;;;;;;;25.92;12.60;;;3.30;99.90;;;;;;4879246;29;20032;-78
2023/03/08 02:17:59;;;;;;;23.48;12.35;;;3.30;99.90;;;;;;4879458;29;20561;-78
2023/03/08 02:20:37;;;;;;;23.75;12.57;;;3.30;99.90;;;;;;4882958;29;20197;-77
2023/03/08 02:23:13;;;;;;;22.38;12.40;;;3.30;99.90;;;;;;4883433;29;20092;-78
2023/03/08 02:25:40;;;;;;;25.67;13.18;;;3.30;99.90;;;;;;4880790;29;20028;-78
2023/03/08 02:28:07;;;;;;;23.20;12.63;;;3.40;99.90;;;;;;4881118;29;20412;-78
2023/03/08 02:30:36;;;;;;;20.15;11.23;;;3.40;99.90;;;;;;4885147;29;20269;-78
2023/03/08 02:33:02;;;;;;;19.73;11.48;;;3.40;99.90;;;;;;4874050;29;20120;-78
2023/03/08 02:35:28;;;;;;;21.15;10.60;;;3.50;99.90;;;;;;4882384;29;20032;-78
2023/03/08 02:37:54;;;;;;;21.60;11.45;;;3.40;99.90;;;;;;4883330;29;20055;-78
2023/03/08 02:40:20;;;;;;;25.00;11.90;;;3.20;99.90;;;;;;4883403;29;20437;-79
2023/03/08 02:42:45;;;;;;;20.77;11.25;;;3.20;99.90;;;;;;4884392;29;20464;-80
2023/03/08 02:45:11;;;;;;;21.92;11.77;;;3.10;99.90;;;;;;4886198;29;20060;-80
2023/03/08 02:47:37;;;;;;;22.20;11.88;;;3.10;99.90;;;;;;4884593;29;20304;-80
2023/03/08 02:50:03;;;;;;;22.88;11.02;;;3.10;99.90;;;;;;4886138;29;20028;-80
2023/03/08 02:52:28;;;;;;;20.70;11.57;;;3.00;99.90;;;;;;4868950;29;20025;-80
2023/03/08 02:54:54;;;;;;;20.33;11.35;;;2.90;99.90;;;;;;4882730;29;20063;-80
2023/03/08 02:57:20;;;;;;;26.40;11.70;;;2.90;99.90;;;;;;4880944;29;20485;-79
2023/03/08 02:59:46;;;;;;;20.00;11.80;;;2.90;99.90;;;;;;4881924;29;20040;-80
2023/03/08 03:02:11;;;;;;;24.05;12.02;;;3.00;99.90;;;;;;4900708;23;20112;-74
2023/03/08 03:04:37;;;;;;;23.50;11.52;;;2.90;99.90;;;;;;4900973;29;20036;-74
2023/03/08 03:07:03;;;;;;;25.20;12.07;;;2.90;99.90;;;;;;4900707;29;20111;-75
2023/03/08 03:09:29;;;;;;;20.50;11.27;;;2.90;99.90;;;;;;4897121;29;20048;-75
2023/03/08 03:11:55;;;;;;;23.17;13.00;;;2.90;99.90;;;;;;4884513;29;20415;-75
2023/03/08 03:14:21;;;;;;;19.70;11.63;;;2.80;99.90;;;;;;4899209;29;20051;-75
2023/03/08 03:16:47;;;;;;;19.20;10.93;;;2.70;99.90;;;;;;4898861;29;20032;-76
2023/03/08 03:19:13;;;;;;;19.42;10.07;;;2.50;99.90;;;;;;4900432;29;20043;-76
2023/03/08 03:21:39;;;;;;;18.27;10.93;;;2.30;99.90;;;;;;4899384;29;20504;-76
2023/03/08 03:24:05;;;;;;;19.33;10.32;;;2.30;99.90;;;;;;4894762;29;20487;-75
2023/03/08 03:26:31;;;;;;;19.63;10.20;;;2.30;99.90;;;;;;4886461;29;20138;-75
2023/03/08 03:28:58;;;;;;;19.15;9.15;;;2.20;99.90;;;;;;4893442;29;20038;-75
2023/03/08 03:31:24;;;;;;;18.33;10.27;;;2.20;99.90;;;;;;4899344;29;20099;-74
2023/03/08 03:33:51;;;;;;;16.88;9.25;;;2.20;99.90;;;;;;4903438;29;20063;-75
2023/03/08 03:36:19;;;;;;;16.08;9.57;;;2.30;99.90;;;;;;4897618;29;20039;-72
2023/03/08 03:38:45;;;;;;;15.95;9.02;;;2.30;99.90;;;;;;4893873;29;20617;-74
2023/03/08 03:41:14;;;;;;;15.88;8.40;;;2.30;99.90;;;;;;4897969;29;20629;-75
2023/03/08 03:43:40;;;;;;;18.13;9.25;;;2.30;99.90;;;;;;4904198;29;20105;-75
2023/03/08 03:46:10;;;;;;;16.73;9.05;;;2.30;99.90;;;;;;4903124;29;20160;-74
2023/03/08 03:48:36;;;;;;;16.60;9.20;;;2.20;99.90;;;;;;4894702;29;20036;-75
2023/03/08 03:51:05;;;;;;;18.25;8.82;;;2.20;99.90;;;;;;4904552;29;20404;-75
2023/03/08 03:53:32;;;;;;;17.02;8.88;;;2.30;99.90;;;;;;4900659;29;20852;-75
2023/03/08 03:56:07;;;;;;;18.02;8.90;;;2.20;99.90;;;;;;4902070;29;20032;-76
2023/03/08 03:58:33;;;;;;;15.80;8.95;;;2.10;99.90;;;;;;4888112;29;20036;-76
2023/03/08 04:00:59;;;;;;;17.15;8.35;;;2.00;99.90;;;;;;4896281;29;20127;-75
2023/03/08 04:03:25;;;;;;;14.85;8.02;;;2.00;99.90;;;;;;4901854;29;20070;-76
2023/03/08 04:05:51;;;;;;;13.52;7.50;;;2.00;99.90;;;;;;4902692;29;20028;-75
2023/03/08 04:08:16;;;;;;;14.43;7.40;;;1.90;99.90;;;;;;4898774;29;20047;-75
2023/03/08 04:10:42;;;;;;;13.55;7.22;;;1.90;99.90;;;;;;4900802;29;20490;-76
2023/03/08 04:13:10;;;;;;;15.38;7.53;;;1.90;99.90;;;;;;4897931;29;20140;-75
2023/03/08 04:15:36;;;;;;;14.50;7.40;;;1.90;99.90;;;;;;4893284;29;20028;-75
2023/03/08 04:18:01;;;;;;;13.48;7.65;;;2.00;99.90;;;;;;4903208;29;20043;-75
2023/03/08 04:20:27;;;;;;;12.43;7.22;;;1.90;99.90;;;;;;4905252;29;20506;-75
2023/03/08 04:22:53;;;;;;;13.98;7.20;;;1.90;99.90;;;;;;4899794;29;20390;-75
2023/03/08 04:25:19;;;;;;;12.55;6.97;;;1.90;99.90;;;;;;4897179;29;20208;-75
2023/03/08 04:27:45;;;;;;;12.55;7.07;;;1.80;99.90;;;;;;4900513;29;20368;-75
2023/03/08 04:30:11;;;;;;;12.73;6.55;;;1.80;99.90;;;;;;4901615;29;20039;-75
2023/03/08 04:32:37;;;;;;;9.48;5.65;;;1.80;99.90;;;;;;4900991;29;20040;-76
2023/03/08 04:35:03;;;;;;;10.35;5.85;;;1.70;99.90;;;;;;4899128;29;20032;-75
2023/03/08 04:37:29;;;;;;;11.13;6.55;;;1.70;99.90;;;;;;4898760;29;20055;-75
2023/03/08 04:39:55;;;;;;;11.30;5.78;;;1.70;99.90;;;;;;4900687;29;20024;-75
2023/03/08 04:42:20;;;;;;;10.38;6.53;;;1.70;99.90;;;;;;4903687;29;20040;-75
2023/03/08 04:44:46;;;;;;;9.88;5.88;;;1.70;99.90;;;;;;4902544;29;20139;-75
2023/03/08 04:47:12;;;;;;;9.00;5.55;;;1.70;99.90;;;;;;4904624;29;20119;-75
2023/03/08 04:49:37;;;;;;;8.57;5.20;;;1.60;99.90;;;;;;4903794;29;20032;-75
2023/03/08 04:52:03;;;;;;;9.38;5.05;;;1.60;99.90;;;;;;4901184;29;20062;-75
2023/03/08 04:54:29;;;;;;;8.10;5.10;;;1.60;99.90;;;;;;4893578;29;20574;-75
2023/03/08 04:56:54;;;;;;;9.55;5.20;;;1.50;99.90;;;;;;4901877;29;20048;-75
2023/03/08 04:59:20;;;;;;;11.05;5.85;;;1.50;99.90;;;;;;4902931;29;20032;-75
2023/03/08 05:01:46;;;;;;;8.02;4.80;;;1.40;99.90;;;;;;4899655;23;20182;-75
2023/03/08 05:04:11;;;;;;;8.90;4.78;;;1.40;99.90;;;;;;4882824;29;20095;-75
2023/03/08 05:06:37;;;;;;;7.50;4.70;;;1.40;99.90;;;;;;4872502;29;20041;-75
2023/03/08 05:09:03;;;;;;;7.55;4.30;;;1.40;99.90;;;;;;4881496;29;20460;-75
2023/03/08 05:11:29;;;;;;;7.38;4.13;;;1.40;99.90;;;;;;4874856;29;20032;-75
2023/03/08 05:13:57;;;;;;;7.00;4.13;;;1.40;99.90;;;;;;4872874;29;20037;-74
2023/03/08 05:16:23;;;;;;;5.60;3.78;;;1.40;99.90;;;;;;4877062;29;20154;-74
2023/03/08 05:18:49;;;;;;;5.97;3.40;;;1.40;99.90;;;;;;4881439;29;21670;-75
2023/03/08 05:21:18;;;;;;;5.72;3.45;;;1.40;99.90;;;;;;4882063;29;20132;-75
2023/03/08 05:23:44;;;;;;;6.68;3.60;;;1.30;99.90;;;;;;4880063;29;20037;-74
2023/03/08 05:26:12;;;;;;;4.72;3.38;;;1.40;99.90;;;;;;4878126;29;20197;-73
2023/03/08 05:28:37;;;;;;;3.33;2.60;;;1.40;99.90;;;;;;4882528;29;20221;-74
2023/03/08 05:31:19;;;;;;;4.97;2.83;;;1.40;99.90;;;;;;4881924;29;20028;-75
2023/03/08 05:33:46;;;;;;;4.43;2.50;;;1.40;99.90;;;;;;4878499;29;20497;-74
2023/03/08 05:36:15;;;;;;;3.75;2.58;;;1.50;99.90;;;;;;4879143;29;20496;-75
2023/03/08 05:38:42;;;;;;;3.35;2.45;;;1.50;99.90;;;;;;4880943;29;20378;-74
2023/03/08 05:41:14;;;;;;;3.58;2.60;;;1.50;99.90;;;;;;4880066;29;20582;-75
2023/03/08 05:43:40;;;;;;;2.47;2.25;;;1.50;99.90;;;;;;4883202;29;20066;-75
2023/03/08 05:46:12;;;;;;;3.83;2.35;;;1.50;99.90;;;;;;4882090;29;20132;-74
2023/03/08 05:48:38;;;;;;;5.10;2.45;;;1.60;99.90;;;;;;4869630;29;20112;-74
2023/03/08 05:51:13;;;;;;;2.45;1.83;;;1.50;99.90;;;;;;4872558;29;20028;-74
2023/03/08 05:53:39;;;;;;;3.00;1.98;;;1.50;99.90;;;;;;4881587;29;20032;-74
2023/03/08 05:56:09;;;;;;;2.55;2.08;;;1.50;99.90;;;;;;4877464;29;20056;-74
2023/03/08 05:58:36;;;;;;;3.80;2.10;;;1.40;99.90;;;;;;4869358;29;20040;-75
2023/03/08 06:01:15;;;;;;;3.03;2.30;;;1.30;99.90;;;;;;4865568;29;20056;-74
2023/03/08 06:03:44;;;;;;;3.10;2.25;;;1.30;99.90;;;;;;4871651;29;20040;-75
2023/03/08 06:06:10;;;;;;;3.47;2.50;;;1.30;99.90;;;;;;4882902;29;20040;-75
2023/03/08 06:08:35;;;;;;;3.30;2.33;;;1.30;99.90;;;;;;4880878;29;20440;-75
2023/03/08 06:11:01;;;;;;;3.65;2.83;;;1.30;99.90;;;;;;4879896;29;20035;-75
2023/03/08 06:13:26;;;;;;;2.78;2.35;;;1.30;99.90;;;;;;4881087;29;20043;-75
2023/03/08 06:15:56;;;;;;;5.57;3.10;;;1.30;99.90;;;;;;4880614;29;20119;-75
2023/03/08 06:18:23;;;;;;;3.47;2.60;;;1.30;99.90;;;;;;4883399;29;20021;-75
2023/03/08 06:21:21;;;;;;;3.35;2.63;;;1.30;99.90;;;;;;4883343;29;20036;-75
2023/03/08 06:23:48;;;;;;;3.90;3.05;;;1.40;99.90;;;;;;4858831;29;20053;-75
2023/03/08 06:26:14;;;;;;;4.07;3.10;;;1.30;99.90;;;;;;4874154;29;20033;-74
2023/03/08 06:28:40;;;;;;;2.95;2.58;;;1.30;99.90;;;;;;4862433;29;20176;-75
2023/03/08 06:31:07;;;;;;;3.13;2.47;;;1.40;99.90;;;;;;4868013;29;20135;-74
2023/03/08 06:33:34;;;;;;;3.38;2.80;;;1.40;99.90;;;;;;4869129;29;20033;-75
2023/03/08 06:36:04;;;;;;;3.00;2.67;;;1.40;99.90;;;;;;4876955;29;20438;-75
2023/03/08 06:38:32;;;;;;;4.00;2.47;;;1.40;99.90;;;;;;4868750;29;20056;-75
2023/03/08 06:40:58;;;;;;;3.25;2.60;;;1.50;99.90;;;;;;4870627;29;20037;-75
2023/03/08 06:43:24;;;;;;;3.67;2.67;;;1.50;99.90;;;;;;4879729;29;20044;-74
2023/03/08 06:45:50;;;;;;;3.70;2.72;;;1.60;99.90;;;;;;4878868;29;20032;-75
2023/03/08 06:48:16;;;;;;;3.55;2.80;;;1.60;99.90;;;;;;4878434;29;20040;-75
2023/03/08 06:50:41;;;;;;;3.25;2.95;;;1.60;99.90;;;;;;4876441;29;20029;-75
2023/03/08 06:53:08;;;;;;;4.35;3.13;;;1.60;99.90;;;;;;4873628;29;20029;-75
2023/03/08 06:55:35;;;;;;;4.97;3.67;;;1.60;99.90;;;;;;4875439;29;20451;-75
2023/03/08 06:58:01;;;;;;;5.10;3.58;;;1.60;99.90;;;;;;4879359;29;20029;-75
2023/03/08 07:00:27;;;;;;;6.03;3.92;;;1.60;99.90;;;;;;4884329;29;20028;-74
2023/03/08 07:02:53;;;;;;;5.80;3.80;;;1.60;99.90;;;;;;4881987;29;20551;-74
2023/03/08 07:05:19;;;;;;;4.50;3.47;;;1.60;99.90;;;;;;4877939;29;20105;-75
2023/03/08 07:07:45;;;;;;;6.50;4.38;;;1.60;99.90;;;;;;4881742;29;20123;-74
2023/03/08 07:10:13;;;;;;;6.35;4.53;;;1.60;99.90;;;;;;4874714;29;20052;-74
2023/03/08 07:12:42;;;;;;;5.00;3.83;;;1.70;99.90;;;;;;4885058;29;20044;-73
2023/03/08 07:15:09;;;;;;;5.93;4.60;;;1.80;99.90;;;;;;4880105;29;20017;-74
2023/03/08 07:17:35;;;;;;;5.70;4.25;;;1.80;99.90;;;;;;4883590;29;20318;-74
2023/03/08 07:20:04;;;;;;;9.13;5.03;;;1.80;99.90;;;;;;4885954;29;20338;-74
2023/03/08 07:22:30;;;;;;;6.60;4.55;;;1.90;99.90;;;;;;4884118;29;20072;-75
2023/03/08 07:24:56;;;;;;;9.50;5.75;;;1.90;99.90;;;;;;4877514;29;20392;-74
2023/03/08 07:27:21;;;;;;;8.05;5.28;;;2.00;99.90;;;;;;4878279;29;20380;-75
2023/03/08 07:29:47;;;;;;;6.22;4.38;;;2.10;99.90;;;;;;4881130;29;20036;-74
2023/03/08 07:32:13;;;;;;;5.38;4.07;;;2.10;99.90;;;;;;4884175;29;20260;-75
2023/03/08 07:34:38;;;;;;;5.80;4.32;;;2.10;99.90;;;;;;4876896;29;20143;-75
2023/03/08 07:37:04;;;;;;;6.82;4.90;;;2.20;99.90;;;;;;4879000;29;20037;-74
2023/03/08 07:39:30;;;;;;;5.20;4.10;;;2.20;99.90;;;;;;4880633;29;20128;-74
2023/03/08 07:41:55;;;;;;;6.72;4.47;;;2.20;99.90;;;;;;4875654;29;20321;-73
2023/03/08 07:44:21;;;;;;;5.65;3.83;;;2.20;99.90;;;;;;4884300;29;20029;-74
2023/03/08 07:46:46;;;;;;;5.70;4.20;;;2.30;99.90;;;;;;4873643;29;20044;-74
2023/03/08 07:49:12;;;;;;;4.97;4.40;;;2.20;99.90;;;;;;4882756;29;20124;-73
2023/03/08 07:51:38;;;;;;;5.10;4.25;;;2.30;99.90;;;;;;4882669;29;20353;-73
2023/03/08 07:54:03;;;;;;;5.70;4.10;;;2.30;99.90;;;;;;4879988;29;20051;-74
2023/03/08 07:56:29;;;;;;;6.47;4.10;;;2.40;99.90;;;;;;4875969;29;20453;-74
2023/03/08 07:58:56;;;;;;;5.82;3.78;;;2.40;99.90;;;;;;4880817;29;20033;-73
2023/03/08 08:01:22;;;;;;;4.95;3.72;;;2.30;99.90;;;;;;4882789;29;20107;-73
2023/03/08 08:03:47;;;;;;;4.88;3.65;;;2.40;99.90;;;;;;4879781;29;20052;-73
2023/03/08 08:06:13;;;;;;;5.25;4.20;;;2.50;99.90;;;;;;4882433;29;20033;-74
2023/03/08 08:08:39;;;;;;;5.10;3.75;;;2.50;99.90;;;;;;4868507;29;20039;-74
2023/03/08 08:11:13;;;;;;;5.40;3.90;;;2.50;99.90;;;;;;4867252;29;20032;-74
2023/03/08 08:13:39;;;;;;;4.45;3.83;;;2.50;99.90;;;;;;4870500;29;20037;-74
2023/03/08 08:16:06;;;;;;;5.97;4.13;;;2.50;99.90;;;;;;4877165;29;20092;-74
2023/03/08 08:18:32;;;;;;;5.63;4.07;;;2.50;99.90;;;;;;4881996;29;20498;-73
2023/03/08 08:21:18;;;;;;;5.97;3.92;;;2.50;99.90;;;;;;4880513;29;20043;-74
2023/03/08 08:23:44;;;;;;;5.78;3.85;;;2.50;99.90;;;;;;4879412;29;20052;-74
2023/03/08 08:26:16;;;;;;;5.18;3.95;;;2.50;99.90;;;;;;4884529;29;20358;-74
2023/03/08 08:28:43;;;;;;;6.05;3.97;;;2.60;99.90;;;;;;4883600;29;20040;-73
2023/03/08 08:31:12;;;;;;;5.35;4.00;;;2.60;99.90;;;;;;4880523;29;20170;-73
2023/03/08 08:33:38;;;;;;;5.55;3.80;;;2.70;99.90;;;;;;4876994;29;20060;-73
2023/03/08 08:36:06;;;;;;;5.65;3.67;;;2.70;99.90;;;;;;4885972;29;20091;-73
2023/03/08 08:38:32;;;;;;;5.65;3.90;;;2.70;99.90;;;;;;4884277;29;20444;-74
2023/03/08 08:40:59;;;;;;;6.68;3.88;;;2.60;99.90;;;;;;4880878;29;20025;-75
2023/03/08 08:43:25;;;;;;;5.13;3.88;;;2.60;99.90;;;;;;4885831;29;20144;-75
2023/03/08 08:45:54;;;;;;;6.07;3.67;;;2.70;99.90;;;;;;4883630;29;20100;-76
2023/03/08 08:48:20;;;;;;;5.88;3.95;;;2.80;99.90;;;;;;4880194;29;20040;-76
2023/03/08 08:50:46;;;;;;;4.65;3.38;;;2.80;99.90;;;;;;4870302;29;20025;-74
2023/03/08 08:53:11;;;;;;;6.18;3.53;;;2.70;99.90;;;;;;4868108;29;20036;-73
2023/03/08 08:55:37;;;;;;;6.53;4.85;;;2.70;99.90;;;;;;4872228;29;20031;-72
2023/03/08 08:58:04;;;;;;;6.93;4.00;;;2.80;99.90;;;;;;4868714;29;20040;-75
2023/03/08 09:00:31;;;;;;;6.00;3.83;;;2.70;99.90;;;;;;4873810;29;20051;-75
2023/03/08 09:02:56;;;;;;;4.65;3.72;;;2.70;99.90;;;;;;4879227;29;20049;-76
2023/03/08 09:05:22;;;;;;;6.32;3.80;;;2.80;99.90;;;;;;4863616;29;20029;-72
2023/03/08 09:07:48;;;;;;;6.30;4.05;;;2.80;99.90;;;;;;4879985;29;20033;-73
2023/03/08 09:10:14;;;;;;;8.25;4.15;;;2.80;99.90;;;;;;4871138;29;20037;-75
2023/03/08 09:12:41;;;;;;;4.90;3.75;;;2.80;99.90;;;;;;4863385;29;20405;-75
2023/03/08 09:15:09;;;;;;;5.72;3.63;;;2.90;99.90;;;;;;4866122;29;20028;-75
2023/03/08 09:17:36;;;;;;;3.85;3.00;;;2.90;99.90;;;;;;4870516;29;20376;-74
2023/03/08 09:20:04;;;;;;;4.78;3.50;;;2.80;99.90;;;;;;4885180;29;20481;-74
2023/03/08 09:22:30;;;;;;;4.20;3.22;;;2.80;99.90;;;;;;4873367;29;20096;-74
2023/03/08 09:24:56;;;;;;;6.03;3.80;;;2.90;99.90;;;;;;4868375;29;20516;-75
2023/03/08 09:27:21;;;;;;;5.28;3.83;;;3.00;99.90;;;;;;4872851;29;20605;-75
2023/03/08 09:29:47;;;;;;;5.32;3.83;;;3.00;99.90;;;;;;4873210;29;20564;-75
2023/03/08 09:32:13;;;;;;;5.63;3.83;;;3.00;99.90;;;;;;4876209;29;20524;-75
2023/03/08 09:34:38;;;;;;;6.50;3.78;;;3.10;99.90;;;;;;4872444;29;20503;-74
2023/03/08 09:37:06;;;;;;;4.25;3.42;;;3.20;99.90;;;;;;4874454;29;20032;-75
2023/03/08 09:48:09;;;;;;;5.82;4.05;;;3.00;99.90;;;;;;5063749;28;20493;-84
2023/03/08 09:50:55;;;;;;;5.60;4.28;;;3.00;99.90;;;;;;5055523;28;20040;-85
2023/03/08 09:53:34;;;;;;;6.43;4.68;;;3.00;99.90;;;;;;5042573;28;20120;-84
2023/03/08 09:56:18;;;;;;;6.32;4.28;;;3.00;99.90;;;;;;5032057;28;20032;-85
2023/03/08 09:58:59;;;;;;;8.43;4.78;;;3.10;99.90;;;;;;5032228;28;20033;-83
2023/03/08 10:01:24;;;;;;;5.40;4.53;;;3.30;99.90;;;;;;5054165;28;20028;-90
2023/03/08 10:04:18;;;;;;;6.32;4.60;;;3.30;99.90;;;;;;5063931;28;20436;-86
2023/03/08 10:07:07;;;;;;;7.55;4.57;;;3.40;99.90;;;;;;5057543;28;20140;-88
2023/03/08 10:09:38;;;;;;;4.90;4.00;;;3.40;99.90;;;;;;5038435;28;20170;-86
2023/03/08 10:17:22;;;;;;;5.50;4.57;;;3.50;99.90;;;;;;5030010;23;20100;-83
2023/03/08 10:20:00;;;;;;;8.53;4.93;;;3.70;99.90;;;;;;3936315;28;10001149;-84
2023/03/08 10:22:31;;;;;;;6.13;5.00;;;3.70;99.90;;;;;;4995192;28;20062;-84
2023/03/08 10:25:22;;;;;;;6.78;4.50;;;3.70;99.90;;;;;;4974488;28;20038;-85
2023/03/08 10:27:51;;;;;;;5.55;4.15;;;3.80;99.90;;;;;;4989855;28;20072;-84
2023/03/08 10:30:21;;;;;;;6.80;4.80;;;3.80;99.90;;;;;;4989421;28;20030;-82
2023/03/08 10:32:50;;;;;;;5.50;4.53;;;3.80;99.90;;;;;;4994298;28;21186;-85
2023/03/08 10:35:16;;;;;;;4.13;3.72;;;3.80;99.90;;;;;;4993498;28;20054;-84
2023/03/08 10:37:48;;;;;;;7.30;4.80;;;3.80;99.90;;;;;;4972779;28;20031;-83
2023/03/08 10:40:19;;;;;;;5.32;4.28;;;3.90;99.90;;;;;;4994771;28;20030;-82
2023/03/08 10:42:52;;;;;;;7.60;4.30;;;3.90;99.90;;;;;;4970190;28;20552;-84
2023/03/08 10:45:21;;;;;;;7.80;4.80;;;3.80;99.90;;;;;;4995717;28;20112;-81
2023/03/08 10:48:04;;;;;;;5.55;4.40;;;3.90;99.90;;;;;;4976368;28;20053;-82
2023/03/08 10:50:35;;;;;;;4.90;4.05;;;3.90;99.90;;;;;;4992099;28;20041;-82
2023/03/08 10:53:17;;;;;;;4.97;4.40;;;3.80;99.90;;;;;;4973284;28;20096;-85
2023/03/08 10:55:45;;;;;;;7.75;4.70;;;3.80;99.90;;;;;;4972082;28;20056;-86
2023/03/08 10:58:32;;;;;;;9.05;5.07;;;3.70;99.90;;;;;;4968514;28;20461;-85
2023/03/08 11:01:21;;;;;;;6.65;4.50;;;3.70;99.90;;;;;;4966645;28;20034;-84
2023/03/08 11:04:01;;;;;;;6.43;4.60;;;3.70;99.90;;;;;;4979317;28;20077;-85
2023/03/08 11:06:27;;;;;;;7.15;4.85;;;3.70;99.90;;;;;;4965188;28;20041;-85
2023/03/08 11:08:55;;;;;;;7.75;4.97;;;3.80;99.90;;;;;;4988932;28;20239;-84
2023/03/08 11:11:21;;;;;;;7.57;4.72;;;3.90;99.90;;;;;;4980760;28;20076;-84
2023/03/08 11:13:49;;;;;;;8.23;4.82;;;3.90;99.90;;;;;;4962025;28;20046;-84
2023/03/08 11:16:54;;;;;;;8.60;4.93;;;3.80;99.90;;;;;;4984186;28;20383;-85
2023/03/08 11:19:22;;;;;;;5.53;4.60;;;3.80;99.90;;;;;;4950332;28;20475;-84
2023/03/08 11:22:11;;;;;;;7.05;5.03;;;3.80;99.90;;;;;;4965238;28;20038;-85
2023/03/08 11:25:15;;;;;;;7.50;4.82;;;3.90;99.90;;;;;;4978011;28;20058;-85
2023/03/08 11:51:18;;;;;;;7.00;5.50;;;3.90;99.90;;;;;;5131618;27;20409;-74
2023/03/08 11:54:05;;;;;;;7.78;6.20;;;4.20;99.90;;;;;;5110959;27;20027;-74
2023/03/08 11:56:41;;;;;;;8.30;5.70;;;4.30;99.90;;;;;;5111955;27;20031;-74
2023/03/08 11:59:19;;;;;;;10.40;5.65;;;4.30;99.90;;;;;;5120461;27;20049;-74
2023/03/08 12:01:47;;;;;;;8.25;5.60;;;4.40;99.90;;;;;;5122419;27;20113;-74
2023/03/08 12:04:23;;;;;;;7.30;5.03;;;4.40;99.90;;;;;;5118842;27;20027;-73
2023/03/08 12:06:53;;;;;;;8.23;5.90;;;4.40;99.90;;;;;;5125399;27;20030;-74
2023/03/08 12:09:28;;;;;;;8.25;5.28;;;4.40;99.90;;;;;;5134288;27;20081;-74
2023/03/08 12:12:28;;;;;;;11.30;5.55;;;4.30;99.90;;;;;;5131724;27;20545;-74
2023/03/08 12:14:54;;;;;;;8.10;5.43;;;4.50;99.90;;;;;;5123126;27;20182;-74
2023/03/08 12:17:26;;;;;;;10.05;5.43;;;4.60;99.90;;;;;;5115648;27;20172;-74
2023/03/08 12:19:52;;;;;;;13.07;5.57;;;4.60;99.90;;;;;;5126407;27;20083;-74
2023/03/08 12:22:24;;;;;;;7.55;5.15;;;4.60;99.90;;;;;;5123877;27;20129;-73
2023/03/08 12:25:11;;;;;;;6.68;4.57;;;4.60;99.90;;;;;;5121458;27;20035;-73
2023/03/08 12:27:54;;;;;;;11.00;4.85;;;4.50;99.90;;;;;;5111809;27;21515;-73
2023/03/08 12:30:26;;;;;;;7.85;4.45;;;4.50;99.90;;;;;;5120882;27;20092;-73
2023/03/08 12:32:54;;;;;;;8.27;5.38;;;4.60;99.90;;;;;;5116568;27;20019;-74
2023/03/08 12:35:28;;;;;;;8.32;4.45;;;4.60;99.90;;;;;;5119537;27;20019;-74
2023/03/08 12:38:14;;;;;;;8.55;4.63;;;4.70;99.90;;;;;;5126551;27;20326;-75
2023/03/08 12:40:44;;;;;;;6.13;4.25;;;4.70;99.90;;;;;;5129297;27;20118;-75
2023/03/08 12:43:13;;;;;;;7.47;5.17;;;4.80;99.90;;;;;;5122915;27;20015;-75
2023/03/08 12:45:41;;;;;;;9.35;4.93;;;4.70;99.90;;;;;;5125543;27;20541;-74
2023/03/08 12:48:12;;;;;;;7.30;4.60;;;4.70;99.90;;;;;;5124632;27;20404;-73
2023/03/08 12:50:53;;;;;;;7.25;4.95;;;4.70;99.90;;;;;;5118799;27;20051;-74
2023/03/08 12:53:43;;;;;;;7.93;5.30;;;4.70;99.90;;;;;;5110672;27;20032;-74
2023/03/08 12:56:08;;;;;;;7.85;4.80;;;4.70;99.90;;;;;;5096868;27;20538;-74
2023/03/08 12:58:38;;;;;;;6.97;4.88;;;4.70;99.90;;;;;;5098047;27;20393;-74
2023/03/08 13:01:27;;;;;;;7.07;5.00;;;4.70;99.90;;;;;;5101864;27;20122;-74
2023/03/08 13:03:53;;;;;;;6.55;4.55;;;4.70;99.90;;;;;;5121985;27;20026;-74
2023/03/08 13:06:21;;;;;;;6.95;4.50;;;4.80;99.90;;;;;;5101596;27;20030;-74
2023/03/08 13:09:12;;;;;;;9.75;4.57;;;4.80;99.90;;;;;;5113740;27;20576;-74
2023/03/08 13:11:42;;;;;;;7.18;4.78;;;4.80;99.90;;;;;;5116191;27;20031;-73
2023/03/08 13:14:37;;;;;;;8.48;4.38;;;4.90;99.90;;;;;;5115069;27;20091;-74
2023/03/08 13:17:25;;;;;;;5.63;4.10;;;5.10;99.90;;;;;;5124779;27;20233;-74
2023/03/08 13:19:51;;;;;;;6.43;4.10;;;5.20;99.90;;;;;;5119072;27;20059;-74
2023/03/08 13:22:48;;;;;;;5.97;4.20;;;5.20;99.90;;;;;;5119043;27;20065;-74
2023/03/08 13:25:16;;;;;;;7.72;3.63;;;5.30;99.90;;;;;;5112830;27;20038;-73
2023/03/08 13:27:59;;;;;;;7.35;4.47;;;5.20;99.90;;;;;;5117932;27;20444;-74
2023/03/08 13:30:32;;;;;;;7.20;4.22;;;5.10;99.90;;;;;;5111858;27;20047;-74
2023/03/08 13:32:58;;;;;;;5.22;3.70;;;4.90;99.90;;;;;;5124463;27;20038;-73
2023/03/08 13:35:24;;;;;;;6.50;3.83;;;4.90;99.90;;;;;;5120054;27;20035;-72
2023/03/08 13:37:52;;;;;;;5.63;3.78;;;4.90;99.90;;;;;;5113628;27;20515;-73